Time;durP1;ratioP1;P1;durP2;ratioP2;P2;SDS_P1;SDS_P2;PMS_P1;PMS_P2;Temp;Humidity;BMP_temperature;BMP_pressure;BME280_temperature;BME280_humidity;BME280_pressure;Samples;Min_cycle;Max_cycle;Signal;HPM_P1;HPM_P2
2023/07/27 00:00:28;;;;;;;5.28;4.88;;;;;;;;;;5011312;28;20204;-86
2023/07/27 00:02:55;;;;;;;4.85;4.40;;;;;;;;;;5010999;28;20302;-86
2023/07/27 00:05:22;;;;;;;6.30;4.38;;;;;;;;;;5011227;28;20232;-86
2023/07/27 00:07:50;;;;;;;4.80;4.35;;;;;;;;;;5011280;28;20218;-85
2023/07/27 00:10:17;;;;;;;5.03;4.60;;;;;;;;;;5012244;28;20240;-88
2023/07/27 00:12:44;;;;;;;6.13;4.90;;;;;;;;;;5013196;28;20228;-87
2023/07/27 00:15:15;;;;;;;4.85;4.38;;;;;;;;;;5011244;28;20661;-87
2023/07/27 00:17:42;;;;;;;4.32;3.92;;;;;;;;;;5011770;28;20646;-87
2023/07/27 00:20:09;;;;;;;5.63;4.18;;;;;;;;;;5010997;28;20208;-86
2023/07/27 00:22:36;;;;;;;4.15;3.58;;;;;;;;;;5011164;28;20283;-86
2023/07/27 00:25:05;;;;;;;4.28;3.88;;;;;;;;;;5010769;28;20694;-85
2023/07/27 00:27:32;;;;;;;3.45;3.20;;;;;;;;;;5010810;28;20270;-85
2023/07/27 00:29:59;;;;;;;3.70;3.40;;;;;;;;;;5011013;28;20341;-85
2023/07/27 00:32:26;;;;;;;2.78;2.58;;;;;;;;;;5010830;28;20555;-83
2023/07/27 00:34:53;;;;;;;3.03;2.80;;;;;;;;;;5010497;28;20218;-85
2023/07/27 00:37:21;;;;;;;2.70;2.50;;;;;;;;;;5010657;28;20221;-85
2023/07/27 00:39:49;;;;;;;2.63;2.50;;;;;;;;;;5010829;28;20216;-85
2023/07/27 00:42:17;;;;;;;2.65;2.55;;;;;;;;;;5010466;28;20279;-86
2023/07/27 00:44:44;;;;;;;2.58;2.47;;;;;;;;;;5011501;28;20207;-85
2023/07/27 00:47:11;;;;;;;4.15;3.10;;;;;;;;;;5010743;28;20254;-85
2023/07/27 00:49:38;;;;;;;5.00;2.60;;;;;;;;;;5010079;28;20674;-85
2023/07/27 00:52:07;;;;;;;2.55;2.45;;;;;;;;;;5011659;28;20279;-85
2023/07/27 00:54:35;;;;;;;2.65;2.55;;;;;;;;;;5011499;28;20646;-87
2023/07/27 00:57:02;;;;;;;5.25;2.35;;;;;;;;;;5007209;28;20352;-85
2023/07/27 00:59:31;;;;;;;2.88;2.67;;;;;;;;;;5011218;28;20261;-86
2023/07/27 01:01:58;;;;;;;2.85;2.72;;;;;;;;;;5011281;28;20218;-88
2023/07/27 01:04:25;;;;;;;2.10;2.00;;;;;;;;;;5010704;28;20204;-88
2023/07/27 01:06:52;;;;;;;2.60;2.40;;;;;;;;;;5011215;28;20202;-87
2023/07/27 01:09:19;;;;;;;2.13;1.92;;;;;;;;;;5010752;28;20235;-86
2023/07/27 01:11:49;;;;;;;1.98;1.88;;;;;;;;;;5009939;28;20227;-86
2023/07/27 01:14:21;;;;;;;1.63;1.55;;;;;;;;;;5010534;28;20208;-86
2023/07/27 01:16:55;;;;;;;3.88;2.10;;;;;;;;;;5010667;28;20221;-86
2023/07/27 01:19:40;;;;;;;1.92;1.83;;;;;;;;;;5011277;28;20198;-88
2023/07/27 01:22:22;;;;;;;1.63;1.52;;;;;;;;;;5012116;28;20204;-87
2023/07/27 01:25:07;;;;;;;1.50;1.40;;;;;;;;;;5011266;28;20204;-86
2023/07/27 01:27:43;;;;;;;1.38;1.38;;;;;;;;;;5009679;28;20239;-85
2023/07/27 01:30:22;;;;;;;1.27;1.27;;;;;;;;;;5009598;28;20619;-85
2023/07/27 01:32:53;;;;;;;1.63;1.52;;;;;;;;;;5009934;28;20192;-86
2023/07/27 01:35:22;;;;;;;1.40;1.40;;;;;;;;;;5009497;28;20265;-86
2023/07/27 01:37:50;;;;;;;1.63;1.50;;;;;;;;;;5010439;28;20211;-85
2023/07/27 01:40:17;;;;;;;1.40;1.25;;;;;;;;;;5010286;28;20258;-85
2023/07/27 01:42:44;;;;;;;1.65;1.65;;;;;;;;;;5010744;28;20199;-85
2023/07/27 01:45:11;;;;;;;1.88;1.77;;;;;;;;;;5013322;28;20209;-84
2023/07/27 01:47:39;;;;;;;1.77;1.67;;;;;;;;;;5017030;28;20256;-85
2023/07/27 01:50:08;;;;;;;4.10;1.63;;;;;;;;;;5017043;28;20238;-86
2023/07/27 01:52:36;;;;;;;1.97;1.87;;;;;;;;;;5015379;28;20249;-86
2023/07/27 01:55:03;;;;;;;2.90;1.60;;;;;;;;;;5015205;28;20582;-86
2023/07/27 01:57:31;;;;;;;2.20;2.10;;;;;;;;;;5014437;28;20295;-87
2023/07/27 01:59:59;;;;;;;1.73;1.63;;;;;;;;;;5014926;28;20207;-86
2023/07/27 02:02:26;;;;;;;1.90;1.80;;;;;;;;;;5016014;28;20679;-85
2023/07/27 02:04:53;;;;;;;2.35;2.25;;;;;;;;;;5017299;28;20205;-84
2023/07/27 02:07:21;;;;;;;2.28;2.17;;;;;;;;;;5024762;28;20213;-87
2023/07/27 02:09:49;;;;;;;2.17;2.00;;;;;;;;;;5017865;28;20335;-87
2023/07/27 02:12:20;;;;;;;2.40;2.30;;;;;;;;;;5013290;28;20309;-88
2023/07/27 02:14:53;;;;;;;2.57;2.47;;;;;;;;;;5013986;28;20210;-86
2023/07/27 02:17:23;;;;;;;2.77;2.67;;;;;;;;;;5014049;28;20204;-87
2023/07/27 02:19:51;;;;;;;2.63;2.47;;;;;;;;;;5017089;28;20220;-87
2023/07/27 02:22:18;;;;;;;2.47;2.37;;;;;;;;;;5016367;28;20306;-87
2023/07/27 02:24:46;;;;;;;3.20;2.90;;;;;;;;;;5013346;28;20664;-85
2023/07/27 02:27:13;;;;;;;2.88;2.70;;;;;;;;;;5013044;28;20216;-85
2023/07/27 02:29:41;;;;;;;2.50;2.25;;;;;;;;;;5012794;28;20222;-85
2023/07/27 02:32:08;;;;;;;2.17;2.08;;;;;;;;;;5012655;28;20206;-87
2023/07/27 02:34:35;;;;;;;2.77;2.67;;;;;;;;;;5012979;28;20305;-85
2023/07/27 02:37:02;;;;;;;2.57;2.47;;;;;;;;;;5013780;28;20569;-86
2023/07/27 02:39:29;;;;;;;2.60;2.47;;;;;;;;;;5013554;28;20230;-85
2023/07/27 02:41:57;;;;;;;3.22;3.03;;;;;;;;;;5013302;28;20666;-87
2023/07/27 02:44:24;;;;;;;3.53;3.25;;;;;;;;;;5013782;28;20208;-87
2023/07/27 02:46:52;;;;;;;3.27;3.13;;;;;;;;;;5016335;28;20202;-86
2023/07/27 02:49:19;;;;;;;3.58;3.25;;;;;;;;;;5014921;28;20239;-87
2023/07/27 02:51:46;;;;;;;4.00;3.80;;;;;;;;;;5015693;28;20204;-87
2023/07/27 02:54:12;;;;;;;5.32;3.75;;;;;;;;;;5014263;28;20243;-86
2023/07/27 02:56:39;;;;;;;3.53;3.08;;;;;;;;;;5013114;28;20348;-84
2023/07/27 02:59:10;;;;;;;3.10;2.80;;;;;;;;;;5013057;28;20318;-88
2023/07/27 03:01:37;;;;;;;4.00;3.60;;;;;;;;;;5013091;28;20322;-86
2023/07/27 03:04:04;;;;;;;3.58;3.38;;;;;;;;;;5011562;28;20199;-88
2023/07/27 03:06:31;;;;;;;3.10;2.90;;;;;;;;;;5012834;28;20205;-88
2023/07/27 03:08:59;;;;;;;3.20;3.00;;;;;;;;;;5012994;28;20208;-87
2023/07/27 03:11:26;;;;;;;5.50;3.10;;;;;;;;;;5012567;28;20215;-86
2023/07/27 03:13:53;;;;;;;4.43;3.23;;;;;;;;;;5012659;28;20217;-86
2023/07/27 03:16:21;;;;;;;4.27;3.87;;;;;;;;;;5011879;28;20209;-87
2023/07/27 03:18:48;;;;;;;11.90;3.10;;;;;;;;;;5012143;28;20650;-87
2023/07/27 03:21:16;;;;;;;3.00;2.80;;;;;;;;;;5012540;28;20329;-87
2023/07/27 03:23:42;;;;;;;3.83;3.53;;;;;;;;;;5013078;28;20206;-88
2023/07/27 03:26:12;;;;;;;3.40;3.13;;;;;;;;;;5012044;28;20204;-86
2023/07/27 03:28:39;;;;;;;3.90;3.23;;;;;;;;;;5012252;28;20252;-86
2023/07/27 03:31:17;;;;;;;4.00;2.80;;;;;;;;;;5012510;28;20229;-85
2023/07/27 03:33:49;;;;;;;2.73;2.53;;;;;;;;;;5012177;28;20209;-87
2023/07/27 03:36:19;;;;;;;3.80;3.60;;;;;;;;;;5012025;28;20252;-83
2023/07/27 03:38:48;;;;;;;3.73;3.33;;;;;;;;;;5011380;28;20205;-85
2023/07/27 03:41:15;;;;;;;3.00;2.80;;;;;;;;;;5011725;28;20265;-86
2023/07/27 03:43:43;;;;;;;3.03;2.83;;;;;;;;;;5012176;28;20670;-86
2023/07/27 03:46:10;;;;;;;6.17;3.67;;;;;;;;;;5011978;28;20253;-85
2023/07/27 03:48:37;;;;;;;3.78;3.58;;;;;;;;;;5011685;28;20209;-86
2023/07/27 03:51:05;;;;;;;3.00;2.90;;;;;;;;;;5012020;28;20196;-87
2023/07/27 03:53:34;;;;;;;2.88;2.67;;;;;;;;;;5012698;28;20200;-86
2023/07/27 03:56:01;;;;;;;3.00;2.90;;;;;;;;;;5011931;28;20668;-86
2023/07/27 03:58:29;;;;;;;10.70;3.50;;;;;;;;;;5011770;28;20233;-86
2023/07/27 04:00:56;;;;;;;3.00;2.80;;;;;;;;;;5011937;28;20322;-86
2023/07/27 04:03:22;;;;;;;2.15;2.05;;;;;;;;;;5011345;28;20197;-86
2023/07/27 04:05:52;;;;;;;2.03;1.92;;;;;;;;;;5012092;28;20203;-86
2023/07/27 04:08:23;;;;;;;1.67;1.58;;;;;;;;;;5011813;28;20351;-85
2023/07/27 04:10:57;;;;;;;2.08;1.98;;;;;;;;;;5010871;28;20278;-87
2023/07/27 04:13:24;;;;;;;1.38;1.38;;;;;;;;;;5011743;28;20307;-87
2023/07/27 04:15:52;;;;;;;1.92;1.83;;;;;;;;;;5012100;28;20209;-86
2023/07/27 04:18:19;;;;;;;1.95;1.85;;;;;;;;;;5011165;28;20240;-87
2023/07/27 04:20:46;;;;;;;1.50;1.45;;;;;;;;;;5011663;28;20236;-86
2023/07/27 04:23:12;;;;;;;5.47;1.80;;;;;;;;;;5010938;28;20682;-87
2023/07/27 04:25:41;;;;;;;2.60;1.73;;;;;;;;;;5011021;28;20205;-86
2023/07/27 04:28:08;;;;;;;3.03;1.55;;;;;;;;;;5011714;28;20290;-88
2023/07/27 04:30:35;;;;;;;1.70;1.60;;;;;;;;;;5011244;28;20207;-86
2023/07/27 04:33:07;;;;;;;1.20;1.20;;;;;;;;;;5010685;28;20213;-88
2023/07/27 04:35:34;;;;;;;1.48;1.45;;;;;;;;;;5010817;28;20218;-87
2023/07/27 04:38:00;;;;;;;1.50;1.50;;;;;;;;;;5011362;28;20204;-87
2023/07/27 04:40:27;;;;;;;1.73;1.42;;;;;;;;;;5010671;28;20231;-87
2023/07/27 04:42:56;;;;;;;1.58;1.50;;;;;;;;;;5011261;28;20257;-87
2023/07/27 04:45:23;;;;;;;3.05;2.28;;;;;;;;;;5010528;28;20206;-87
2023/07/27 04:47:50;;;;;;;2.35;1.67;;;;;;;;;;5010748;28;20198;-87
2023/07/27 04:50:18;;;;;;;1.35;1.35;;;;;;;;;;5011919;28;20216;-85
2023/07/27 04:52:48;;;;;;;1.52;1.42;;;;;;;;;;5010772;28;20206;-86
2023/07/27 04:55:15;;;;;;;1.67;1.57;;;;;;;;;;5010869;28;20261;-85
2023/07/27 04:57:42;;;;;;;1.50;1.50;;;;;;;;;;5012961;28;20282;-87
2023/07/27 05:00:11;;;;;;;1.40;1.40;;;;;;;;;;5014143;28;20231;-87
2023/07/27 05:02:38;;;;;;;1.77;1.58;;;;;;;;;;5028393;28;20214;-87
2023/07/27 05:05:09;;;;;;;1.67;1.60;;;;;;;;;;5034074;28;20198;-87
2023/07/27 05:07:36;;;;;;;1.65;1.65;;;;;;;;;;5019608;28;20213;-88
2023/07/27 05:10:06;;;;;;;1.60;1.60;;;;;;;;;;5011617;28;20278;-87
2023/07/27 05:12:34;;;;;;;5.07;1.77;;;;;;;;;;5011871;28;20236;-86
2023/07/27 05:15:01;;;;;;;2.20;2.10;;;;;;;;;;5011915;28;20202;-87
2023/07/27 05:17:29;;;;;;;1.52;1.52;;;;;;;;;;5010245;28;20273;-86
2023/07/27 05:19:57;;;;;;;1.75;1.67;;;;;;;;;;5010831;28;20237;-85
2023/07/27 05:22:35;;;;;;;1.27;1.27;;;;;;;;;;5011073;28;20219;-86
2023/07/27 05:25:03;;;;;;;1.60;1.60;;;;;;;;;;5010890;28;20221;-86
2023/07/27 05:27:30;;;;;;;1.58;1.55;;;;;;;;;;5011132;28;20208;-86
2023/07/27 05:29:57;;;;;;;3.30;1.60;;;;;;;;;;5020654;28;20210;-86
2023/07/27 05:32:24;;;;;;;1.92;1.83;;;;;;;;;;5018417;28;20262;-86
2023/07/27 05:34:54;;;;;;;5.85;1.95;;;;;;;;;;5017771;28;20282;-87
2023/07/27 05:37:21;;;;;;;1.88;1.77;;;;;;;;;;5015363;28;20256;-86
2023/07/27 05:39:48;;;;;;;1.80;1.70;;;;;;;;;;5012708;28;20198;-85
2023/07/27 05:42:15;;;;;;;1.92;1.83;;;;;;;;;;5014264;28;20623;-86
2023/07/27 05:44:42;;;;;;;4.47;1.95;;;;;;;;;;5011120;28;20215;-85
2023/07/27 05:47:09;;;;;;;2.60;2.50;;;;;;;;;;5010106;28;20212;-86
2023/07/27 05:49:36;;;;;;;1.90;1.80;;;;;;;;;;5010266;28;20270;-85
2023/07/27 05:52:13;;;;;;;1.40;1.30;;;;;;;;;;5010294;28;20322;-85
2023/07/27 05:54:41;;;;;;;1.73;1.63;;;;;;;;;;5010009;28;20200;-87
2023/07/27 05:57:07;;;;;;;2.08;1.35;;;;;;;;;;5009826;28;20732;-87
2023/07/27 05:59:34;;;;;;;1.80;1.70;;;;;;;;;;5009539;28;20213;-86
2023/07/27 06:02:02;;;;;;;2.65;1.60;;;;;;;;;;5009796;28;20244;-87
2023/07/27 06:04:29;;;;;;;1.52;1.52;;;;;;;;;;5010289;28;20207;-87
2023/07/27 06:06:58;;;;;;;1.50;1.40;;;;;;;;;;5010356;28;20204;-87
2023/07/27 06:09:27;;;;;;;1.65;1.65;;;;;;;;;;5009817;28;20207;-87
2023/07/27 06:11:54;;;;;;;1.20;1.20;;;;;;;;;;5009544;28;20666;-87
2023/07/27 06:14:21;;;;;;;1.40;1.38;;;;;;;;;;5010601;28;20280;-86
2023/07/27 06:16:50;;;;;;;1.33;1.33;;;;;;;;;;5009978;28;20211;-86
2023/07/27 06:19:17;;;;;;;1.50;1.40;;;;;;;;;;5010468;28;20208;-87
2023/07/27 06:21:45;;;;;;;1.10;1.10;;;;;;;;;;5011747;28;20236;-88
2023/07/27 06:24:12;;;;;;;1.08;1.08;;;;;;;;;;5021636;28;20243;-87
2023/07/27 06:26:40;;;;;;;1.00;1.00;;;;;;;;;;5025714;28;20204;-88
2023/07/27 06:29:07;;;;;;;1.00;1.00;;;;;;;;;;5012338;28;20220;-87
2023/07/27 06:31:34;;;;;;;1.00;1.00;;;;;;;;;;5003834;28;20217;-88
2023/07/27 06:34:00;;;;;;;1.27;1.00;;;;;;;;;;5003465;28;20213;-88
2023/07/27 06:36:27;;;;;;;1.25;1.00;;;;;;;;;;4997351;28;20205;-85
2023/07/27 06:38:54;;;;;;;0.95;0.95;;;;;;;;;;5015156;28;20207;-86
2023/07/27 06:41:25;;;;;;;3.28;1.00;;;;;;;;;;5017637;28;20331;-85
2023/07/27 06:43:53;;;;;;;0.98;0.98;;;;;;;;;;5012197;28;20216;-86
2023/07/27 06:46:21;;;;;;;3.95;1.02;;;;;;;;;;5013087;28;20192;-87
2023/07/27 06:48:48;;;;;;;0.90;0.90;;;;;;;;;;5001761;28;20201;-86
2023/07/27 06:51:14;;;;;;;0.80;0.80;;;;;;;;;;5013441;28;20208;-87
2023/07/27 06:53:41;;;;;;;0.80;0.80;;;;;;;;;;5010157;28;20693;-88
2023/07/27 06:56:08;;;;;;;3.50;1.23;;;;;;;;;;5003950;28;20293;-86
2023/07/27 06:58:35;;;;;;;0.50;0.50;;;;;;;;;;5011830;28;20235;-86
2023/07/27 07:01:05;;;;;;;1.85;0.77;;;;;;;;;;5010832;28;20243;-86
2023/07/27 07:03:35;;;;;;;0.70;0.70;;;;;;;;;;5012039;28;20308;-86
2023/07/27 07:06:01;;;;;;;0.85;0.70;;;;;;;;;;4998639;28;20321;-88
2023/07/27 07:08:29;;;;;;;0.80;0.80;;;;;;;;;;5011519;28;20258;-87
2023/07/27 07:10:56;;;;;;;1.13;1.05;;;;;;;;;;5011716;28;20235;-86
2023/07/27 07:13:24;;;;;;;0.80;0.80;;;;;;;;;;5010328;28;20224;-89
2023/07/27 07:15:51;;;;;;;0.65;0.65;;;;;;;;;;5011636;28;20305;-86
2023/07/27 07:18:20;;;;;;;1.38;0.90;;;;;;;;;;5012119;28;20274;-89
2023/07/27 07:20:49;;;;;;;1.50;1.10;;;;;;;;;;5011975;28;20236;-89
2023/07/27 07:23:17;;;;;;;1.10;1.00;;;;;;;;;;5011175;28;20311;-90
2023/07/27 07:25:44;;;;;;;1.08;0.95;;;;;;;;;;5012220;28;20723;-88
2023/07/27 07:28:12;;;;;;;1.42;1.00;;;;;;;;;;5012680;28;20228;-89
2023/07/27 07:30:42;;;;;;;0.88;0.88;;;;;;;;;;5011994;28;20228;-88
2023/07/27 07:33:09;;;;;;;1.85;1.00;;;;;;;;;;5012803;28;20362;-90
2023/07/27 07:35:38;;;;;;;1.38;0.98;;;;;;;;;;5011648;28;20337;-90
2023/07/27 07:38:06;;;;;;;0.75;0.75;;;;;;;;;;5010858;28;20734;-87
2023/07/27 07:40:36;;;;;;;1.00;1.00;;;;;;;;;;5011941;28;20232;-88
2023/07/27 07:43:03;;;;;;;0.82;0.82;;;;;;;;;;5011345;28;20307;-87
2023/07/27 07:45:30;;;;;;;1.85;0.90;;;;;;;;;;5010327;28;20257;-87
2023/07/27 07:48:22;;;;;;;0.85;0.85;;;;;;;;;;5010404;28;20240;-89
2023/07/27 07:50:56;;;;;;;0.75;0.75;;;;;;;;;;5010915;28;20227;-88
2023/07/27 07:53:28;;;;;;;1.10;1.10;;;;;;;;;;5011034;28;20306;-89
2023/07/27 07:55:55;;;;;;;1.05;1.05;;;;;;;;;;5011940;28;20248;-91
2023/07/27 07:58:23;;;;;;;1.55;0.98;;;;;;;;;;5010240;28;20679;-89
2023/07/27 08:00:51;;;;;;;0.93;0.90;;;;;;;;;;5011026;28;20290;-89
2023/07/27 08:03:17;;;;;;;5.18;1.13;;;;;;;;;;5011177;28;20248;-90
2023/07/27 08:05:46;;;;;;;1.00;1.00;;;;;;;;;;5010564;28;20240;-90
2023/07/27 08:08:15;;;;;;;4.70;0.70;;;;;;;;;;5011218;28;20232;-90
2023/07/27 08:10:42;;;;;;;3.15;0.90;;;;;;;;;;5012520;28;20225;-89
2023/07/27 08:13:10;;;;;;;1.10;1.00;;;;;;;;;;5011965;28;20217;-89
2023/07/27 08:15:39;;;;;;;0.70;0.70;;;;;;;;;;5011962;28;20833;-89
2023/07/27 08:18:06;;;;;;;1.40;1.25;;;;;;;;;;5011640;28;20623;-90
2023/07/27 08:20:35;;;;;;;1.02;1.02;;;;;;;;;;5010373;28;20311;-91
2023/07/27 08:23:08;;;;;;;1.15;0.95;;;;;;;;;;5012102;28;20244;-89
2023/07/27 08:25:40;;;;;;;1.20;1.20;;;;;;;;;;5013748;28;20634;-89
2023/07/27 08:28:10;;;;;;;2.03;1.20;;;;;;;;;;5015788;28;20229;-91
2023/07/27 08:30:38;;;;;;;1.05;1.05;;;;;;;;;;5029618;28;20227;-90
2023/07/27 08:33:12;;;;;;;3.92;1.70;;;;;;;;;;5025015;28;20571;-91
2023/07/27 08:35:40;;;;;;;1.10;1.08;;;;;;;;;;5023624;28;20254;-89
2023/07/27 08:38:07;;;;;;;2.60;0.85;;;;;;;;;;5025883;28;20666;-89
2023/07/27 08:40:34;;;;;;;0.70;0.70;;;;;;;;;;5020244;28;20232;-89
2023/07/27 08:43:07;;;;;;;0.70;0.70;;;;;;;;;;5019724;28;20224;-90
2023/07/27 08:45:35;;;;;;;4.60;1.13;;;;;;;;;;5011632;28;20326;-88
2023/07/27 08:48:02;;;;;;;5.45;0.90;;;;;;;;;;5011591;28;20228;-92
2023/07/27 08:50:31;;;;;;;4.75;1.05;;;;;;;;;;5009613;28;20260;-88
2023/07/27 08:52:58;;;;;;;1.13;1.13;;;;;;;;;;5012061;28;20239;-87
2023/07/27 08:55:25;;;;;;;1.73;0.77;;;;;;;;;;5009905;28;20241;-87
2023/07/27 08:57:52;;;;;;;2.53;0.82;;;;;;;;;;5009499;28;20239;-87
2023/07/27 09:00:22;;;;;;;1.10;0.90;;;;;;;;;;5010752;28;20228;-88
2023/07/27 09:02:49;;;;;;;2.40;0.70;;;;;;;;;;5023617;28;20606;-87
2023/07/27 09:05:16;;;;;;;0.85;0.85;;;;;;;;;;5011437;28;20220;-87
2023/07/27 09:07:44;;;;;;;7.32;1.08;;;;;;;;;;5011197;28;20613;-86
2023/07/27 09:10:11;;;;;;;2.85;0.80;;;;;;;;;;5011064;28;20304;-88
2023/07/27 09:12:41;;;;;;;4.63;0.90;;;;;;;;;;5009753;28;20298;-90
2023/07/27 09:15:15;;;;;;;1.77;0.82;;;;;;;;;;5010419;28;20795;-87
2023/07/27 09:17:58;;;;;;;6.40;1.15;;;;;;;;;;5010964;28;20304;-89
2023/07/27 09:20:27;;;;;;;1.55;0.82;;;;;;;;;;5008923;28;20252;-89
2023/07/27 09:23:08;;;;;;;0.88;0.88;;;;;;;;;;5013729;28;20239;-87
2023/07/27 09:25:39;;;;;;;2.55;1.00;;;;;;;;;;5010692;28;20728;-89
2023/07/27 09:28:06;;;;;;;4.93;0.90;;;;;;;;;;5010634;28;20228;-90
2023/07/27 09:30:36;;;;;;;9.18;1.17;;;;;;;;;;5009295;28;20277;-90
2023/07/27 09:33:27;;;;;;;0.77;0.77;;;;;;;;;;5010334;28;20370;-90
2023/07/27 09:36:12;;;;;;;1.10;1.10;;;;;;;;;;4997466;28;20373;-88
2023/07/27 09:38:39;;;;;;;5.25;1.20;;;;;;;;;;5011011;28;20255;-87
2023/07/27 09:41:08;;;;;;;1.42;1.05;;;;;;;;;;5012940;28;20701;-89
2023/07/27 09:43:47;;;;;;;0.90;0.90;;;;;;;;;;5001217;28;20287;-89
2023/07/27 09:46:15;;;;;;;7.30;1.30;;;;;;;;;;4996524;28;20320;-89
2023/07/27 09:48:43;;;;;;;3.50;0.98;;;;;;;;;;5005371;28;20759;-90
2023/07/27 09:51:14;;;;;;;0.93;0.93;;;;;;;;;;4999281;28;20399;-88
2023/07/27 09:53:51;;;;;;;0.90;0.90;;;;;;;;;;4991646;28;20246;-89
2023/07/27 09:56:18;;;;;;;1.02;1.02;;;;;;;;;;4990636;28;20532;-89
2023/07/27 09:58:47;;;;;;;0.80;0.80;;;;;;;;;;4990838;28;20314;-89
2023/07/27 10:01:18;;;;;;;1.38;1.10;;;;;;;;;;4990706;28;20222;-90
2023/07/27 10:03:48;;;;;;;0.85;0.85;;;;;;;;;;4989195;28;20229;-91
2023/07/27 10:06:20;;;;;;;2.25;1.38;;;;;;;;;;4999046;28;20661;-89
2023/07/27 10:08:47;;;;;;;0.80;0.80;;;;;;;;;;5010104;28;20287;-89
2023/07/27 10:11:15;;;;;;;2.53;0.90;;;;;;;;;;5013057;28;20216;-89
2023/07/27 10:13:46;;;;;;;0.90;0.90;;;;;;;;;;5014020;28;20315;-88
2023/07/27 10:16:19;;;;;;;1.83;0.88;;;;;;;;;;5019134;28;20248;-90
2023/07/27 10:18:47;;;;;;;1.08;1.08;;;;;;;;;;5015764;28;20236;-89
2023/07/27 10:21:27;;;;;;;1.10;1.10;;;;;;;;;;5015306;28;20220;-88
2023/07/27 10:23:59;;;;;;;0.82;0.82;;;;;;;;;;5011757;28;20271;-92
2023/07/27 10:26:41;;;;;;;4.03;1.60;;;;;;;;;;5013859;28;20316;-88
2023/07/27 10:29:15;;;;;;;9.48;1.25;;;;;;;;;;5013258;28;20232;-90
2023/07/27 10:31:43;;;;;;;0.98;0.85;;;;;;;;;;5014072;28;20262;-89
2023/07/27 10:34:14;;;;;;;1.23;1.13;;;;;;;;;;5012346;28;20224;-88
2023/07/27 10:36:56;;;;;;;0.93;0.93;;;;;;;;;;5001719;28;20225;-89
2023/07/27 10:39:25;;;;;;;1.70;1.25;;;;;;;;;;4994972;28;20221;-90
2023/07/27 10:42:03;;;;;;;4.70;1.50;;;;;;;;;;5010475;28;20276;-89
2023/07/27 10:44:40;;;;;;;1.00;1.00;;;;;;;;;;5008029;28;20666;-89
2023/07/27 10:47:08;;;;;;;1.30;1.30;;;;;;;;;;5010893;28;20225;-88
2023/07/27 10:49:39;;;;;;;1.17;1.00;;;;;;;;;;5010331;28;20225;-90
2023/07/27 10:52:08;;;;;;;7.82;1.20;;;;;;;;;;5004856;28;20744;-87
2023/07/27 10:54:38;;;;;;;1.30;1.30;;;;;;;;;;5015504;28;20220;-87
2023/07/27 10:57:08;;;;;;;1.17;1.17;;;;;;;;;;5017239;28;20252;-86
2023/07/27 10:59:38;;;;;;;1.80;1.35;;;;;;;;;;5019819;28;20221;-90
2023/07/27 11:02:08;;;;;;;1.90;1.80;;;;;;;;;;5025588;28;20752;-89
2023/07/27 11:04:36;;;;;;;1.48;1.48;;;;;;;;;;5022515;28;20283;-89
2023/07/27 11:07:04;;;;;;;1.95;1.45;;;;;;;;;;5022414;28;20232;-87
2023/07/27 11:09:33;;;;;;;1.65;1.33;;;;;;;;;;5018702;28;20308;-90
2023/07/27 11:12:04;;;;;;;1.48;1.27;;;;;;;;;;5012895;28;20286;-89
2023/07/27 11:14:33;;;;;;;1.25;1.25;;;;;;;;;;5011289;28;20251;-89
2023/07/27 11:17:01;;;;;;;10.07;1.65;;;;;;;;;;5013481;28;20697;-89
2023/07/27 11:19:29;;;;;;;1.80;1.70;;;;;;;;;;5012088;28;20308;-89
2023/07/27 11:21:56;;;;;;;11.05;1.95;;;;;;;;;;5012944;28;20263;-89
2023/07/27 11:24:25;;;;;;;3.05;1.42;;;;;;;;;;5016383;28;20229;-89
2023/07/27 11:27:01;;;;;;;1.35;1.33;;;;;;;;;;5027473;28;20263;-90
2023/07/27 11:29:32;;;;;;;1.30;1.30;;;;;;;;;;5027847;28;20248;-90
2023/07/27 11:32:00;;;;;;;1.23;1.20;;;;;;;;;;5032957;28;20292;-90
2023/07/27 11:34:29;;;;;;;2.03;1.50;;;;;;;;;;5032791;28;20221;-90
2023/07/27 11:36:57;;;;;;;4.10;1.60;;;;;;;;;;5015769;28;20456;-91
2023/07/27 11:39:24;;;;;;;1.38;1.27;;;;;;;;;;5012804;28;20237;-89
2023/07/27 11:41:52;;;;;;;1.85;1.40;;;;;;;;;;5011868;28;20232;-91
2023/07/27 11:44:26;;;;;;;1.63;1.52;;;;;;;;;;5013142;28;20224;-90
2023/07/27 11:46:56;;;;;;;1.40;1.40;;;;;;;;;;5011610;28;20307;-88
2023/07/27 11:49:23;;;;;;;1.27;1.17;;;;;;;;;;5011368;28;20304;-90
2023/07/27 11:51:52;;;;;;;3.83;1.33;;;;;;;;;;5013848;28;20279;-90
2023/07/27 11:54:23;;;;;;;2.65;1.40;;;;;;;;;;5012501;28;20220;-90
2023/07/27 11:56:51;;;;;;;1.38;1.38;;;;;;;;;;5010750;28;20236;-90
2023/07/27 11:59:21;;;;;;;4.32;1.77;;;;;;;;;;5011710;28;20263;-88
2023/07/27 12:01:53;;;;;;;1.42;1.42;;;;;;;;;;5011247;28;20224;-90
2023/07/27 12:04:20;;;;;;;1.60;1.50;;;;;;;;;;5010401;28;20224;-90
2023/07/27 12:06:47;;;;;;;3.45;1.73;;;;;;;;;;5011276;28;20230;-90
2023/07/27 12:09:14;;;;;;;1.48;1.33;;;;;;;;;;5011255;28;20719;-87
2023/07/27 12:11:42;;;;;;;1.50;1.50;;;;;;;;;;5010536;28;20249;-90
2023/07/27 12:14:09;;;;;;;2.55;1.40;;;;;;;;;;5012961;28;20689;-91
2023/07/27 12:16:37;;;;;;;1.50;1.50;;;;;;;;;;5014103;28;20275;-89
2023/07/27 12:19:13;;;;;;;5.38;1.33;;;;;;;;;;5030385;28;20216;-91
2023/07/27 12:21:40;;;;;;;1.83;1.65;;;;;;;;;;5031855;28;20208;-89
2023/07/27 12:24:11;;;;;;;1.15;1.15;;;;;;;;;;5029767;28;20232;-88
2023/07/27 12:26:38;;;;;;;2.60;1.08;;;;;;;;;;5013231;28;20673;-89
2023/07/27 12:29:09;;;;;;;1.13;1.13;;;;;;;;;;5014430;28;20228;-90
2023/07/27 12:31:37;;;;;;;1.13;1.13;;;;;;;;;;5012496;28;20238;-89
2023/07/27 12:34:07;;;;;;;1.10;1.10;;;;;;;;;;5014548;28;20268;-89
2023/07/27 12:36:34;;;;;;;6.22;1.40;;;;;;;;;;5016556;28;20331;-90
2023/07/27 12:39:01;;;;;;;1.48;1.38;;;;;;;;;;5017762;28;20221;-91
2023/07/27 12:41:29;;;;;;;4.22;1.20;;;;;;;;;;5023114;28;20224;-90
2023/07/27 12:43:57;;;;;;;1.30;1.30;;;;;;;;;;5031009;28;20256;-88
2023/07/27 12:46:25;;;;;;;1.40;1.30;;;;;;;;;;5031652;28;20229;-89
2023/07/27 12:48:52;;;;;;;3.10;1.02;;;;;;;;;;5018153;28;20228;-88
2023/07/27 12:51:30;;;;;;;3.05;1.30;;;;;;;;;;5012329;28;20280;-88
2023/07/27 12:53:59;;;;;;;1.70;1.70;;;;;;;;;;5045811;28;20220;-91
2023/07/27 12:56:26;;;;;;;1.42;1.42;;;;;;;;;;5040206;28;20248;-90
2023/07/27 12:58:56;;;;;;;2.35;2.10;;;;;;;;;;5038244;28;20236;-91
2023/07/27 13:01:24;;;;;;;1.40;1.40;;;;;;;;;;5035923;28;20704;-91
2023/07/27 13:03:54;;;;;;;1.70;1.50;;;;;;;;;;5035316;28;20239;-92
2023/07/27 13:06:28;;;;;;;1.67;1.40;;;;;;;;;;5049519;28;20267;-88
2023/07/27 13:08:55;;;;;;;3.70;1.67;;;;;;;;;;5040475;28;20212;-90
2023/07/27 13:11:27;;;;;;;1.52;1.42;;;;;;;;;;5040323;28;20287;-87
2023/07/27 13:13:59;;;;;;;1.58;1.48;;;;;;;;;;5036549;28;20204;-90
2023/07/27 13:16:27;;;;;;;1.50;1.40;;;;;;;;;;5035791;28;20287;-90
2023/07/27 13:19:01;;;;;;;1.70;1.60;;;;;;;;;;5032851;28;20235;-90
2023/07/27 13:21:31;;;;;;;1.60;1.55;;;;;;;;;;5020352;28;20209;-92
2023/07/27 13:23:59;;;;;;;1.50;1.50;;;;;;;;;;5011181;28;20232;-91
2023/07/27 13:26:31;;;;;;;3.25;1.40;;;;;;;;;;5012162;28;20255;-90
2023/07/27 13:28:58;;;;;;;1.50;1.50;;;;;;;;;;5011962;28;20220;-91
2023/07/27 13:31:28;;;;;;;1.25;1.25;;;;;;;;;;5011391;28;20288;-92
2023/07/27 13:33:56;;;;;;;1.48;1.48;;;;;;;;;;5011899;28;20271;-90
2023/07/27 13:36:25;;;;;;;1.40;1.40;;;;;;;;;;5010400;28;20669;-88
2023/07/27 13:38:54;;;;;;;3.15;1.10;;;;;;;;;;5010588;28;20210;-87
2023/07/27 13:41:21;;;;;;;1.80;1.70;;;;;;;;;;5011333;28;20670;-87
2023/07/27 13:43:49;;;;;;;1.13;1.13;;;;;;;;;;5013409;28;20315;-87
2023/07/27 13:46:17;;;;;;;1.33;1.23;;;;;;;;;;5011605;28;20207;-87
2023/07/27 13:48:43;;;;;;;1.45;1.35;;;;;;;;;;5017747;28;20731;-87
2023/07/27 13:51:10;;;;;;;1.45;1.40;;;;;;;;;;5026725;28;20197;-86
2023/07/27 13:53:37;;;;;;;1.92;1.65;;;;;;;;;;5019503;28;20287;-87
2023/07/27 13:56:07;;;;;;;5.32;1.75;;;;;;;;;;5014936;28;20320;-88
2023/07/27 13:58:33;;;;;;;1.20;1.20;;;;;;;;;;5015383;28;20267;-87
2023/07/27 14:01:00;;;;;;;3.60;2.75;;;;;;;;;;5015434;28;20248;-89
2023/07/27 14:03:28;;;;;;;1.58;1.52;;;;;;;;;;5014219;28;20557;-86
2023/07/27 14:05:55;;;;;;;1.75;1.65;;;;;;;;;;5013937;28;20211;-87
2023/07/27 14:08:39;;;;;;;1.50;1.38;;;;;;;;;;5014938;28;20223;-87
2023/07/27 14:11:09;;;;;;;1.23;1.17;;;;;;;;;;5015030;28;20287;-88
2023/07/27 14:13:36;;;;;;;1.58;1.55;;;;;;;;;;5015826;28;20220;-90
2023/07/27 14:16:06;;;;;;;1.30;1.30;;;;;;;;;;5014785;28;20669;-87
2023/07/27 14:18:34;;;;;;;1.60;1.50;;;;;;;;;;5008732;28;20197;-89
2023/07/27 14:21:01;;;;;;;1.67;1.67;;;;;;;;;;4993949;28;20617;-87
2023/07/27 14:23:29;;;;;;;2.53;2.38;;;;;;;;;;4995492;28;20754;-91
2023/07/27 14:25:55;;;;;;;1.65;1.50;;;;;;;;;;4993608;28;21010;-87
2023/07/27 14:28:25;;;;;;;1.88;1.80;;;;;;;;;;5000787;28;20228;-88
2023/07/27 14:30:52;;;;;;;1.60;1.60;;;;;;;;;;5013095;28;20235;-89
2023/07/27 14:33:20;;;;;;;1.70;1.70;;;;;;;;;;5014589;28;20324;-89
2023/07/27 14:35:50;;;;;;;1.45;1.45;;;;;;;;;;5013620;28;20221;-90
2023/07/27 14:38:18;;;;;;;1.80;1.80;;;;;;;;;;5013619;28;20220;-89
2023/07/27 14:40:46;;;;;;;1.85;1.77;;;;;;;;;;5010178;28;20602;-88
2023/07/27 14:43:15;;;;;;;1.50;1.50;;;;;;;;;;4996763;28;20248;-89
2023/07/27 14:45:46;;;;;;;1.60;1.60;;;;;;;;;;5014980;28;20236;-91
2023/07/27 14:48:13;;;;;;;1.58;1.58;;;;;;;;;;5014488;28;20232;-88
2023/07/27 14:50:42;;;;;;;1.63;1.63;;;;;;;;;;5013316;28;20689;-88
2023/07/27 14:53:11;;;;;;;2.83;2.55;;;;;;;;;;5009221;28;20691;-89